createdAt,value
2019-04-21T00:00:31.719Z,20.20
2019-04-21T00:03:07.356Z,19.90
2019-04-21T00:05:55.860Z,20.60
2019-04-21T00:08:24.880Z,19.53
2019-04-21T00:10:59.377Z,18.53
2019-04-21T00:13:17.673Z,19.73
2019-04-21T00:15:38.356Z,19.20
2019-04-21T00:18:11.096Z,20.97
2019-04-21T00:20:47.773Z,19.10
2019-04-21T00:23:30.073Z,18.90
2019-04-21T00:25:52.952Z,19.30
2019-04-21T00:28:38.999Z,19.53
2019-04-21T00:31:00.488Z,17.87
2019-04-21T00:33:18.859Z,19.03
2019-04-21T00:35:52.070Z,18.43
2019-04-21T00:38:33.885Z,18.30
2019-04-21T00:41:08.908Z,17.97
2019-04-21T00:43:28.243Z,19.37
2019-04-21T00:45:51.832Z,18.77
2019-04-21T00:48:37.753Z,19.27
2019-04-21T00:51:16.935Z,18.67
2019-04-21T00:53:43.721Z,17.50
2019-04-21T00:56:18.170Z,17.53
2019-04-21T00:58:38.722Z,15.67
2019-04-21T01:01:07.400Z,15.87
2019-04-21T01:03:46.361Z,14.23
2019-04-21T01:06:14.376Z,13.53
2019-04-21T01:08:42.656Z,12.63
2019-04-21T01:11:14.092Z,12.83
2019-04-21T01:13:45.568Z,12.93
2019-04-21T01:16:14.759Z,12.73
2019-04-21T01:18:39.435Z,12.17
2019-04-21T01:20:50.099Z,11.90
2019-04-21T01:23:19.231Z,11.70
2019-04-21T01:26:00.812Z,10.50
2019-04-21T01:28:34.360Z,11.90
2019-04-21T01:31:08.727Z,13.03
2019-04-21T01:36:03.842Z,11.87
2019-04-21T01:38:42.804Z,11.43
2019-04-21T01:41:18.383Z,11.73
2019-04-21T01:43:33.706Z,11.27
2019-04-21T01:46:06.633Z,11.33
2019-04-21T01:48:34.192Z,12.00
2019-04-21T01:51:05.089Z,12.47
2019-04-21T01:54:01.804Z,11.40
2019-04-21T01:56:35.730Z,11.03
2019-04-21T01:58:55.018Z,10.97
2019-04-21T02:01:33.316Z,10.50
2019-04-21T02:04:07.238Z,10.10
2019-04-21T02:06:33.393Z,9.77
2019-04-21T02:09:06.754Z,10.00
2019-04-21T02:11:35.425Z,9.67
2019-04-21T02:14:10.193Z,10.10
2019-04-21T02:16:40.687Z,9.77
2019-04-21T02:19:08.208Z,10.47
2019-04-21T02:21:38.308Z,9.60
2019-04-21T02:24:23.167Z,10.90
2019-04-21T02:26:47.469Z,10.40
2019-04-21T02:29:21.461Z,10.27
2019-04-21T02:32:01.776Z,10.73
2019-04-21T02:37:19.523Z,9.77
2019-04-21T02:39:40.765Z,9.13
2019-04-21T02:42:05.413Z,9.87
2019-04-21T02:46:55.138Z,8.80
2019-04-21T02:49:46.891Z,8.70
2019-04-21T02:52:13.374Z,8.13
2019-04-21T02:57:09.223Z,8.23
2019-04-21T03:00:00.499Z,8.47
2019-04-21T03:02:33.568Z,8.90
2019-04-21T03:05:11.645Z,9.13
2019-04-21T03:07:41.353Z,10.00
2019-04-21T03:10:11.533Z,10.00
2019-04-21T03:12:38.100Z,10.37
2019-04-21T03:15:16.098Z,10.47
2019-04-21T03:22:42.128Z,11.20
2019-04-21T03:25:25.120Z,9.80
2019-04-21T03:27:52.804Z,9.63
2019-04-21T03:30:33.318Z,9.53
2019-04-21T03:35:49.045Z,8.50
2019-04-21T03:37:39.840Z,8.13
2019-04-21T03:42:52.964Z,8.60
2019-04-21T03:45:25.013Z,8.57
2019-04-21T03:53:06.811Z,7.70
2019-04-21T04:01:04.187Z,7.40
2019-04-21T04:03:59.783Z,7.87
2019-04-21T04:11:31.674Z,8.10
2019-04-21T04:14:12.928Z,8.53
2019-04-21T04:16:38.042Z,8.13
2019-04-21T04:21:34.896Z,7.40
2019-04-21T04:26:29.099Z,7.70
2019-04-21T04:28:54.585Z,7.43
2019-04-21T04:31:35.398Z,7.57
2019-04-21T04:34:06.676Z,7.33
2019-04-21T04:36:33.372Z,7.63
2019-04-21T04:39:29.826Z,8.03
2019-04-21T04:42:14.567Z,8.10
2019-04-21T04:44:57.111Z,7.37
2019-04-21T04:47:05.507Z,7.43
2019-04-21T04:52:20.993Z,6.73
2019-04-21T04:54:47.593Z,6.77
2019-04-21T04:57:09.984Z,7.40
2019-04-21T05:02:11.618Z,7.13
2019-04-21T05:04:37.433Z,7.37
2019-04-21T05:07:07.184Z,6.80
2019-04-21T05:09:36.417Z,6.57
2019-04-21T05:11:55.742Z,7.10
2019-04-21T05:14:35.449Z,6.33
2019-04-21T05:17:21.577Z,6.83
2019-04-21T05:19:57.398Z,6.43
2019-04-21T05:22:05.790Z,6.60
2019-04-21T05:24:25.473Z,6.63
2019-04-21T05:26:49.339Z,6.73
2019-04-21T05:29:20.811Z,6.97
2019-04-21T05:32:21.930Z,6.87
2019-04-21T05:34:55.813Z,6.43
2019-04-21T05:37:28.628Z,7.00
2019-04-21T05:40:10.608Z,6.90
2019-04-21T05:42:39.652Z,6.93
2019-04-21T05:45:18.842Z,6.73
2019-04-21T05:48:02.818Z,6.70
2019-04-21T05:50:29.306Z,7.13
2019-04-21T05:52:53.561Z,6.27
2019-04-21T05:55:36.109Z,6.30
2019-04-21T05:58:03.666Z,6.00
2019-04-21T06:00:54.626Z,6.50
2019-04-21T06:03:09.859Z,6.20
2019-04-21T06:05:47.919Z,5.83
2019-04-21T06:08:09.883Z,5.90
2019-04-21T06:10:42.288Z,6.57
2019-04-21T06:13:14.634Z,6.47
2019-04-21T06:15:47.162Z,5.87
2019-04-21T06:18:20.169Z,6.27
2019-04-21T06:20:46.779Z,5.73
2019-04-21T06:23:11.233Z,5.83
2019-04-21T06:25:55.625Z,6.00
2019-04-21T06:28:25.595Z,6.03
2019-04-21T06:33:20.239Z,6.27
2019-04-21T06:39:01.873Z,6.80
2019-04-21T06:41:27.810Z,6.50
2019-04-21T06:43:56.691Z,6.30
2019-04-21T06:46:25.853Z,6.30
2019-04-21T06:48:56.984Z,6.23
2019-04-21T06:51:27.586Z,6.60
2019-04-21T06:53:59.316Z,6.10
2019-04-21T06:56:30.955Z,6.33
2019-04-21T06:58:55.625Z,6.57
2019-04-21T07:01:34.568Z,6.50
2019-04-21T07:04:05.868Z,6.43
2019-04-21T07:06:32.169Z,6.30
2019-04-21T07:09:12.602Z,6.93
2019-04-21T07:11:28.749Z,6.50
2019-04-21T07:14:13.458Z,7.03
2019-04-21T07:16:32.140Z,6.60
2019-04-21T07:19:07.377Z,6.90
2019-04-21T07:21:34.450Z,7.10
2019-04-21T07:24:06.891Z,6.80
2019-04-21T07:26:36.789Z,7.47
2019-04-21T07:29:12.270Z,7.60
2019-04-21T07:31:40.420Z,7.30
2019-04-21T07:36:46.360Z,8.40
2019-04-21T07:39:08.740Z,8.80
2019-04-21T07:41:34.015Z,8.50
2019-04-21T07:44:00.261Z,8.53
2019-04-21T07:46:29.070Z,8.80
2019-04-21T07:49:39.660Z,8.73
2019-04-21T07:52:49.284Z,9.37
2019-04-21T07:57:37.570Z,8.27
2019-04-21T08:02:51.082Z,8.43
2019-04-21T08:05:24.866Z,8.50
2019-04-21T08:10:24.309Z,8.90
2019-04-21T08:12:47.288Z,8.80
2019-04-21T08:15:27.542Z,9.13
2019-04-21T08:17:57.174Z,10.40
2019-04-21T08:20:24.078Z,9.40
2019-04-21T08:22:59.549Z,9.00
2019-04-21T08:25:30.830Z,8.83
2019-04-21T08:27:59.802Z,9.23
2019-04-21T08:30:34.478Z,9.20
2019-04-21T08:33:09.215Z,9.60
2019-04-21T08:38:02.090Z,9.70
2019-04-21T08:40:36.798Z,8.90
2019-04-21T08:43:01.143Z,8.80
2019-04-21T08:45:35.741Z,9.20
2019-04-21T08:48:04.663Z,8.13
2019-04-21T08:50:44.230Z,8.67
2019-04-21T08:53:08.061Z,8.60
2019-04-21T08:56:13.575Z,8.30
2019-04-21T08:58:56.184Z,12.10
2019-04-21T09:01:38.252Z,8.83
2019-04-21T09:04:07.614Z,7.73
2019-04-21T09:06:54.123Z,7.50
2019-04-21T09:09:11.873Z,7.63
2019-04-21T09:11:40.527Z,7.27
2019-04-21T09:14:13.716Z,7.60
2019-04-21T09:16:36.659Z,7.97
2019-04-21T09:19:07.084Z,7.83
2019-04-21T09:21:43.689Z,6.93
2019-04-21T09:24:13.305Z,7.03
2019-04-21T09:26:43.467Z,7.17
2019-04-21T09:29:05.891Z,6.90
2019-04-21T09:31:33.832Z,6.43
2019-04-21T09:34:00.477Z,7.10
2019-04-21T09:36:35.056Z,6.70
2019-04-21T09:39:06.633Z,6.67
2019-04-21T09:41:29.752Z,6.23
2019-04-21T09:44:01.232Z,6.40
2019-04-21T09:46:35.447Z,6.47
2019-04-21T09:49:05.515Z,6.57
2019-04-21T09:51:32.517Z,5.83
2019-04-21T09:54:08.271Z,5.97
2019-04-21T09:56:41.530Z,5.97
2019-04-21T09:59:10.123Z,5.53
2019-04-21T10:01:50.034Z,6.00
2019-04-21T10:04:05.819Z,5.60
2019-04-21T10:06:35.035Z,5.67
2019-04-21T10:09:09.537Z,11.30
2019-04-21T10:11:37.613Z,5.40
2019-04-21T10:14:07.429Z,4.67
2019-04-21T10:16:59.976Z,4.00
2019-04-21T10:19:29.762Z,4.23
2019-04-21T10:22:00.424Z,4.53
2019-04-21T10:24:30.569Z,4.90
2019-04-21T10:27:01.684Z,4.77
2019-04-21T10:29:32.988Z,4.70
2019-04-21T10:32:01.551Z,4.87
2019-04-21T10:34:31.472Z,5.30
2019-04-21T10:37:04.887Z,5.10
2019-04-21T10:39:33.931Z,5.40
2019-04-21T10:42:03.538Z,4.80
2019-04-21T10:44:32.579Z,4.90
2019-04-21T10:47:02.598Z,4.87
2019-04-21T10:49:32.661Z,5.03
2019-04-21T10:52:05.044Z,4.53
2019-04-21T10:54:49.120Z,4.30
2019-04-21T10:57:08.520Z,5.13
2019-04-21T10:59:37.542Z,5.20
2019-04-21T11:02:10.634Z,4.60
2019-04-21T11:04:40.581Z,4.90
2019-04-21T11:07:34.418Z,5.03
2019-04-21T11:10:02.363Z,5.00
2019-04-21T11:12:36.486Z,4.60
2019-04-21T11:15:05.354Z,4.77
2019-04-21T11:17:34.373Z,4.00
2019-04-21T11:20:04.633Z,4.20
2019-04-21T11:22:35.251Z,4.03
2019-04-21T11:25:04.926Z,4.67
2019-04-21T11:27:35.049Z,4.20
2019-04-21T11:30:05.380Z,4.20
2019-04-21T11:32:35.067Z,3.63
2019-04-21T11:35:05.296Z,4.17
2019-04-21T11:37:34.815Z,4.10
2019-04-21T11:40:09.193Z,4.20
2019-04-21T11:42:37.816Z,3.87
2019-04-21T11:45:08.372Z,3.17
2019-04-21T11:47:45.969Z,3.57
2019-04-21T11:50:21.158Z,3.57
2019-04-21T11:52:50.102Z,3.70
2019-04-21T11:55:18.955Z,3.90
2019-04-21T11:57:49.803Z,4.07
2019-04-21T12:00:19.828Z,3.63
2019-04-21T12:02:48.922Z,3.57
2019-04-21T12:05:17.800Z,3.67
2019-04-21T12:07:47.170Z,4.10
2019-04-21T12:10:17.573Z,3.40
2019-04-21T12:12:47.523Z,4.07
2019-04-21T12:15:16.784Z,3.73
2019-04-21T12:17:45.933Z,3.80
2019-04-21T12:20:35.521Z,3.67
2019-04-21T12:23:04.698Z,3.57
2019-04-21T12:25:39.012Z,3.70
2019-04-21T12:28:07.948Z,3.30
2019-04-21T12:30:37.770Z,3.30
2019-04-21T12:33:14.029Z,3.30
2019-04-21T12:35:43.910Z,3.40
2019-04-21T12:38:13.162Z,3.20
2019-04-21T12:40:42.355Z,3.30
2019-04-21T12:43:12.523Z,3.30
2019-04-21T12:45:41.985Z,3.03
2019-04-21T12:48:11.059Z,2.97
2019-04-21T12:50:39.823Z,3.07
2019-04-21T12:53:09.534Z,3.33
2019-04-21T12:55:42.791Z,3.10
2019-04-21T12:58:10.937Z,3.37
2019-04-21T13:00:40.926Z,2.93
2019-04-21T13:03:09.899Z,2.93
2019-04-21T13:05:39.984Z,3.17
2019-04-21T13:08:09.238Z,3.00
2019-04-21T13:10:38.245Z,2.97
2019-04-21T13:13:08.091Z,2.87
2019-04-21T13:15:37.597Z,3.17
2019-04-21T13:18:06.511Z,3.17
2019-04-21T13:20:35.956Z,3.20
2019-04-21T13:23:05.957Z,3.23
2019-04-21T13:25:36.005Z,2.80
2019-04-21T13:28:05.074Z,3.23
2019-04-21T13:30:33.953Z,3.37
2019-04-21T13:33:03.040Z,2.90
2019-04-21T13:35:33.139Z,3.27
2019-04-21T13:38:02.675Z,3.20
2019-04-21T13:41:03.886Z,2.80
2019-04-21T13:43:17.028Z,3.00
2019-04-21T13:45:46.151Z,2.90
2019-04-21T13:48:16.642Z,2.80
2019-04-21T13:50:46.939Z,2.90
2019-04-21T13:53:16.647Z,3.03
2019-04-21T13:55:46.714Z,3.10
2019-04-21T13:58:16.769Z,3.20
2019-04-21T14:00:45.776Z,3.10
2019-04-21T14:03:14.675Z,2.90
2019-04-21T14:05:44.526Z,3.00
2019-04-21T14:08:13.560Z,3.10
2019-04-21T14:10:43.818Z,3.17
2019-04-21T14:13:14.354Z,3.20
2019-04-21T14:15:45.336Z,2.97
2019-04-21T14:18:14.994Z,3.10
2019-04-21T14:20:44.972Z,3.07
2019-04-21T14:23:23.205Z,3.10
2019-04-21T14:25:45.803Z,2.97
2019-04-21T14:28:15.643Z,2.77
2019-04-21T14:30:44.544Z,2.83
2019-04-21T14:33:14.205Z,2.80
2019-04-21T14:35:43.159Z,3.10
2019-04-21T14:38:11.938Z,3.70
2019-04-21T14:40:41.754Z,3.00
2019-04-21T14:43:12.012Z,2.63
2019-04-21T14:45:45.968Z,2.80
2019-04-21T14:48:32.915Z,3.00
2019-04-21T14:51:27.367Z,3.20
2019-04-21T14:54:14.037Z,3.57
2019-04-21T14:56:44.908Z,2.80
2019-04-21T14:59:15.027Z,2.90
2019-04-21T15:01:44.213Z,2.80
2019-04-21T15:04:16.882Z,2.93
2019-04-21T15:06:43.744Z,3.30
2019-04-21T15:09:13.359Z,3.13
2019-04-21T15:11:42.407Z,2.90
2019-04-21T15:14:11.684Z,3.40
2019-04-21T15:16:40.891Z,2.93
2019-04-21T15:19:10.787Z,3.10
2019-04-21T15:21:40.498Z,3.00
2019-04-21T15:24:09.577Z,3.27
2019-04-21T15:26:40.036Z,2.90
2019-04-21T15:29:09.092Z,2.90
2019-04-21T15:31:41.685Z,2.80
2019-04-21T15:34:08.800Z,3.20
2019-04-21T15:36:37.920Z,3.23
2019-04-21T15:39:08.229Z,2.83
2019-04-21T15:41:38.482Z,2.80
2019-04-21T15:44:08.294Z,2.90
2019-04-21T15:46:39.753Z,3.00
2019-04-21T15:49:09.200Z,2.90
2019-04-21T15:51:38.189Z,2.83
2019-04-21T15:54:07.260Z,2.83
2019-04-21T15:57:04.945Z,2.67
2019-04-21T16:00:00.344Z,2.60
2019-04-21T16:02:40.372Z,2.50
2019-04-21T16:05:10.855Z,2.80
2019-04-21T16:07:40.318Z,2.80
2019-04-21T16:10:11.934Z,2.57
2019-04-21T16:12:40.781Z,2.73
2019-04-21T16:15:10.510Z,3.10
2019-04-21T16:17:39.544Z,3.00
2019-04-21T16:20:12.118Z,3.63
2019-04-21T16:22:42.293Z,3.00
2019-04-21T16:25:12.870Z,2.80
2019-04-21T16:27:43.414Z,2.80
2019-04-21T16:30:13.297Z,2.90
2019-04-21T16:32:42.205Z,2.67
2019-04-21T16:35:14.368Z,3.13
2019-04-21T16:37:43.659Z,3.03
2019-04-21T16:40:14.190Z,2.93
2019-04-21T16:42:43.135Z,3.10
2019-04-21T16:45:16.823Z,3.00
2019-04-21T16:47:49.066Z,3.17
2019-04-21T16:50:17.578Z,2.73
2019-04-21T16:52:52.143Z,2.90
2019-04-21T16:55:35.412Z,2.70
2019-04-21T16:58:26.614Z,2.90
2019-04-21T17:01:04.555Z,2.93
2019-04-21T17:03:30.620Z,2.90
2019-04-21T17:06:00.499Z,3.00
2019-04-21T17:08:31.724Z,2.90
2019-04-21T17:11:10.853Z,2.50
2019-04-21T17:13:32.143Z,2.80
2019-04-21T17:16:33.070Z,2.60
2019-04-21T17:18:47.622Z,2.97
2019-04-21T17:21:05.005Z,2.80
2019-04-21T17:23:35.508Z,2.73
2019-04-21T17:26:05.405Z,3.00
2019-04-21T17:28:34.441Z,2.90
2019-04-21T17:31:08.546Z,2.93
2019-04-21T17:33:37.665Z,2.73
2019-04-21T17:36:09.110Z,2.93
2019-04-21T17:38:39.647Z,2.73
2019-04-21T17:41:21.615Z,2.80
2019-04-21T17:43:49.921Z,2.90
2019-04-21T17:46:26.202Z,3.03
2019-04-21T17:48:50.598Z,3.10
2019-04-21T17:51:40.623Z,3.10
2019-04-21T17:54:35.828Z,2.87
2019-04-21T17:57:21.486Z,2.60
2019-04-21T17:59:56.859Z,2.93
2019-04-21T18:02:24.846Z,3.10
2019-04-21T18:04:58.895Z,3.20
2019-04-21T18:07:31.590Z,3.50
2019-04-21T18:10:11.510Z,3.27
2019-04-21T18:12:28.832Z,3.30
2019-04-21T18:14:56.268Z,3.70
2019-04-21T18:17:18.472Z,3.33
2019-04-21T18:19:51.323Z,3.07
2019-04-21T18:22:38.587Z,3.57
2019-04-21T18:25:10.633Z,3.10
2019-04-21T18:27:36.767Z,3.23
2019-04-21T18:30:30.844Z,3.17
2019-04-21T18:33:04.688Z,3.50
2019-04-21T18:35:54.340Z,3.50
2019-04-21T18:38:45.140Z,3.57
2019-04-21T18:41:01.451Z,3.80
2019-04-21T18:43:55.810Z,3.97
2019-04-21T18:46:31.541Z,4.57
2019-04-21T18:49:01.472Z,3.90
2019-04-21T18:51:57.161Z,3.80
2019-04-21T18:54:47.122Z,3.90
2019-04-21T18:57:08.261Z,4.20
2019-04-21T18:59:34.540Z,4.90
2019-04-21T19:02:06.246Z,8.17
2019-04-21T19:04:33.908Z,5.63
2019-04-21T19:07:17.311Z,4.33
2019-04-21T19:10:11.397Z,4.07
2019-04-21T19:12:31.920Z,4.40
2019-04-21T19:14:51.000Z,4.30
2019-04-21T19:20:08.865Z,4.10
2019-04-21T19:22:28.875Z,3.80
2019-04-21T19:24:59.452Z,3.90
2019-04-21T19:27:28.099Z,3.90
2019-04-21T19:30:05.693Z,3.90
2019-04-21T19:32:29.029Z,3.90
2019-04-21T19:34:45.319Z,3.80
2019-04-21T19:37:17.353Z,4.20
2019-04-21T19:39:57.750Z,4.20
2019-04-21T19:42:25.663Z,3.83
2019-04-21T19:44:59.232Z,3.93
2019-04-21T19:47:34.930Z,4.50
2019-04-21T19:50:12.011Z,4.10
2019-04-21T19:52:49.727Z,4.07
2019-04-21T19:59:01.348Z,4.93
2019-04-21T20:01:58.468Z,4.60
2019-04-21T20:04:44.011Z,4.87
2019-04-21T20:07:34.270Z,5.00
2019-04-21T20:13:14.518Z,5.53
2019-04-21T20:15:52.036Z,5.50
2019-04-21T20:18:13.982Z,5.37
2019-04-21T20:20:56.377Z,4.97
2019-04-21T20:23:32.759Z,4.80
2019-04-21T20:26:23.128Z,4.67
2019-04-21T20:29:34.110Z,4.63
2019-04-21T20:32:28.013Z,4.30
2019-04-21T20:35:07.052Z,4.60
2019-04-21T20:38:09.338Z,4.77
2019-04-21T20:40:45.823Z,4.50
2019-04-21T20:43:41.805Z,4.90
2019-04-21T20:46:12.512Z,5.20
2019-04-21T20:48:52.437Z,4.67
2019-04-21T20:51:29.963Z,4.80
2019-04-21T20:54:00.524Z,4.93
2019-04-21T20:56:57.574Z,4.97
2019-04-21T20:59:25.040Z,5.10
2019-04-21T21:02:05.656Z,5.27
2019-04-21T21:04:40.275Z,5.20
2019-04-21T21:08:14.910Z,4.93
2019-04-21T21:11:08.292Z,5.43
2019-04-21T21:14:28.076Z,5.57
2019-04-21T21:18:01.035Z,5.30
2019-04-21T21:20:24.841Z,5.63
2019-04-21T21:23:11.573Z,5.77
2019-04-21T21:28:54.153Z,5.70
2019-04-21T21:38:55.660Z,6.50
2019-04-21T21:41:45.174Z,6.40
2019-04-21T21:44:53.336Z,6.20
2019-04-21T21:47:24.135Z,6.23
2019-04-21T21:50:29.864Z,5.90
2019-04-21T21:53:16.444Z,5.70
2019-04-21T21:55:44.970Z,5.80
2019-04-21T22:09:06.231Z,5.40
2019-04-21T22:11:42.192Z,5.50
2019-04-21T22:14:44.679Z,5.93
2019-04-21T22:17:29.011Z,5.57
2019-04-21T22:20:33.401Z,6.10
2019-04-21T22:22:58.367Z,6.40
2019-04-21T22:25:29.588Z,6.20
2019-04-21T22:27:57.776Z,6.10
2019-04-21T22:30:38.168Z,5.57
2019-04-21T22:33:11.889Z,5.23
2019-04-21T22:35:46.282Z,5.60
2019-04-21T22:38:29.612Z,5.30
2019-04-21T22:40:59.050Z,5.87
2019-04-21T22:43:36.648Z,5.53
2019-04-21T22:46:01.223Z,5.50
2019-04-21T22:48:34.596Z,5.53
2019-04-21T22:51:08.851Z,5.67
2019-04-21T22:53:44.549Z,5.70
2019-04-21T22:56:19.791Z,5.77
2019-04-21T22:58:46.529Z,5.70
2019-04-21T23:01:24.130Z,5.80
2019-04-21T23:03:55.314Z,5.60
2019-04-21T23:06:35.650Z,5.27
2019-04-21T23:09:19.161Z,5.30
2019-04-21T23:11:59.544Z,5.10
2019-04-21T23:14:24.009Z,5.93
2019-04-21T23:17:14.869Z,5.50
2019-04-21T23:19:44.890Z,5.43
2019-04-21T23:22:17.316Z,5.07
2019-04-21T23:24:53.109Z,6.00
2019-04-21T23:27:14.128Z,5.33
2019-04-21T23:29:59.803Z,6.13
2019-04-21T23:32:25.934Z,5.53
2019-04-21T23:34:43.442Z,5.80
2019-04-21T23:37:19.542Z,5.60
2019-04-21T23:39:45.493Z,5.60
2019-04-21T23:42:23.702Z,5.13
2019-04-21T23:44:55.153Z,5.20
2019-04-21T23:47:37.375Z,5.03
2019-04-21T23:50:05.582Z,4.60
2019-04-21T23:52:29.880Z,4.53
2019-04-21T23:55:00.989Z,4.63
2019-04-21T23:57:37.931Z,4.93
